sensor_id;sensor_type;location;lat;lon;timestamp;P1;durP1;ratioP1;P2;durP2;ratioP2
76727;SDS011;65652;53.132;18.026;2022-12-18T00:01:53;56.90;;;19.60;;
76727;SDS011;65652;53.132;18.026;2022-12-18T00:04:24;42.20;;;14.70;;
76727;SDS011;65652;53.132;18.026;2022-12-18T00:06:52;49.30;;;16.10;;
76727;SDS011;65652;53.132;18.026;2022-12-18T00:09:18;50.10;;;13.80;;
76727;SDS011;65652;53.132;18.026;2022-12-18T00:11:45;63.70;;;20.80;;
76727;SDS011;65652;53.132;18.026;2022-12-18T00:14:11;64.20;;;19.90;;
76727;SDS011;65652;53.132;18.026;2022-12-18T00:16:39;54.90;;;17.80;;
76727;SDS011;65652;53.132;18.026;2022-12-18T00:19:05;51.20;;;15.00;;
76727;SDS011;65652;53.132;18.026;2022-12-18T00:21:33;49.40;;;15.30;;
76727;SDS011;65652;53.132;18.026;2022-12-18T00:23:59;56.80;;;17.70;;
76727;SDS011;65652;53.132;18.026;2022-12-18T00:26:27;38.10;;;11.90;;
76727;SDS011;65652;53.132;18.026;2022-12-18T00:29:29;45.90;;;14.60;;
76727;SDS011;65652;53.132;18.026;2022-12-18T00:34:14;45.70;;;15.20;;
76727;SDS011;65652;53.132;18.026;2022-12-18T00:36:40;63.60;;;18.30;;
76727;SDS011;65652;53.132;18.026;2022-12-18T00:39:07;56.10;;;17.00;;
76727;SDS011;65652;53.132;18.026;2022-12-18T00:41:34;58.30;;;17.20;;
76727;SDS011;65652;53.132;18.026;2022-12-18T00:44:19;48.90;;;15.10;;
76727;SDS011;65652;53.132;18.026;2022-12-18T00:46:46;57.20;;;17.80;;
76727;SDS011;65652;53.132;18.026;2022-12-18T00:49:14;54.00;;;16.50;;
76727;SDS011;65652;53.132;18.026;2022-12-18T00:51:42;48.00;;;15.40;;
76727;SDS011;65652;53.132;18.026;2022-12-18T00:54:09;33.50;;;11.00;;
76727;SDS011;65652;53.132;18.026;2022-12-18T00:56:36;57.20;;;16.70;;
76727;SDS011;65652;53.132;18.026;2022-12-18T00:59:04;49.30;;;13.80;;
76727;SDS011;65652;53.132;18.026;2022-12-18T01:01:31;62.70;;;16.60;;
76727;SDS011;65652;53.132;18.026;2022-12-18T01:03:59;49.50;;;15.90;;
76727;SDS011;65652;53.132;18.026;2022-12-18T01:06:26;38.30;;;12.00;;
76727;SDS011;65652;53.132;18.026;2022-12-18T01:08:53;51.80;;;15.10;;
76727;SDS011;65652;53.132;18.026;2022-12-18T01:11:19;40.40;;;12.90;;
76727;SDS011;65652;53.132;18.026;2022-12-18T01:13:47;46.40;;;15.00;;
76727;SDS011;65652;53.132;18.026;2022-12-18T01:16:14;41.40;;;13.70;;
76727;SDS011;65652;53.132;18.026;2022-12-18T01:18:42;44.00;;;13.50;;
76727;SDS011;65652;53.132;18.026;2022-12-18T01:21:09;29.90;;;9.30;;
76727;SDS011;65652;53.132;18.026;2022-12-18T01:23:38;45.80;;;14.10;;
76727;SDS011;65652;53.132;18.026;2022-12-18T01:26:08;43.20;;;13.20;;
76727;SDS011;65652;53.132;18.026;2022-12-18T01:28:37;42.40;;;12.40;;
76727;SDS011;65652;53.132;18.026;2022-12-18T01:31:18;47.40;;;13.90;;
76727;SDS011;65652;53.132;18.026;2022-12-18T01:33:46;44.40;;;14.20;;
76727;SDS011;65652;53.132;18.026;2022-12-18T01:36:26;34.20;;;11.90;;
76727;SDS011;65652;53.132;18.026;2022-12-18T01:38:58;57.70;;;16.70;;
76727;SDS011;65652;53.132;18.026;2022-12-18T01:41:28;67.10;;;16.80;;
76727;SDS011;65652;53.132;18.026;2022-12-18T01:47:21;50.50;;;15.50;;
76727;SDS011;65652;53.132;18.026;2022-12-18T01:52:43;39.50;;;11.70;;
76727;SDS011;65652;53.132;18.026;2022-12-18T01:55:12;47.60;;;15.20;;
76727;SDS011;65652;53.132;18.026;2022-12-18T01:57:44;38.80;;;11.40;;
76727;SDS011;65652;53.132;18.026;2022-12-18T02:00:12;38.20;;;11.00;;
76727;SDS011;65652;53.132;18.026;2022-12-18T02:02:41;34.70;;;9.70;;
76727;SDS011;65652;53.132;18.026;2022-12-18T02:13:29;23.80;;;8.70;;
76727;SDS011;65652;53.132;18.026;2022-12-18T02:16:19;24.80;;;8.10;;
76727;SDS011;65652;53.132;18.026;2022-12-18T02:18:59;24.50;;;7.10;;
76727;SDS011;65652;53.132;18.026;2022-12-18T02:26:59;37.20;;;11.50;;
76727;SDS011;65652;53.132;18.026;2022-12-18T02:29:40;39.00;;;11.60;;
76727;SDS011;65652;53.132;18.026;2022-12-18T02:32:20;32.20;;;10.90;;
76727;SDS011;65652;53.132;18.026;2022-12-18T02:34:51;25.80;;;7.50;;
76727;SDS011;65652;53.132;18.026;2022-12-18T02:37:21;13.30;;;3.80;;
76727;SDS011;65652;53.132;18.026;2022-12-18T02:39:49;20.30;;;6.70;;
76727;SDS011;65652;53.132;18.026;2022-12-18T02:42:19;20.40;;;6.50;;
76727;SDS011;65652;53.132;18.026;2022-12-18T02:44:48;31.10;;;9.50;;
76727;SDS011;65652;53.132;18.026;2022-12-18T02:47:22;33.80;;;9.80;;
76727;SDS011;65652;53.132;18.026;2022-12-18T02:53:10;28.20;;;8.00;;
76727;SDS011;65652;53.132;18.026;2022-12-18T02:58:04;25.90;;;8.50;;
76727;SDS011;65652;53.132;18.026;2022-12-18T03:00:43;13.50;;;4.70;;
76727;SDS011;65652;53.132;18.026;2022-12-18T03:03:23;25.60;;;8.00;;
76727;SDS011;65652;53.132;18.026;2022-12-18T03:06:01;23.30;;;8.10;;
76727;SDS011;65652;53.132;18.026;2022-12-18T03:08:44;28.90;;;9.30;;
76727;SDS011;65652;53.132;18.026;2022-12-18T03:11:15;36.90;;;10.70;;
76727;SDS011;65652;53.132;18.026;2022-12-18T03:14:02;35.20;;;12.50;;
76727;SDS011;65652;53.132;18.026;2022-12-18T03:16:32;33.50;;;10.90;;
76727;SDS011;65652;53.132;18.026;2022-12-18T03:19:01;38.10;;;13.10;;
76727;SDS011;65652;53.132;18.026;2022-12-18T03:21:33;35.00;;;11.50;;
76727;SDS011;65652;53.132;18.026;2022-12-18T03:24:06;24.70;;;9.30;;
76727;SDS011;65652;53.132;18.026;2022-12-18T03:26:35;32.40;;;11.30;;
76727;SDS011;65652;53.132;18.026;2022-12-18T03:29:08;23.00;;;8.20;;
76727;SDS011;65652;53.132;18.026;2022-12-18T03:31:45;28.50;;;10.30;;
76727;SDS011;65652;53.132;18.026;2022-12-18T03:34:21;37.40;;;12.40;;
76727;SDS011;65652;53.132;18.026;2022-12-18T03:36:53;23.50;;;8.10;;
76727;SDS011;65652;53.132;18.026;2022-12-18T03:39:19;30.30;;;9.70;;
76727;SDS011;65652;53.132;18.026;2022-12-18T03:50:18;15.70;;;4.20;;
76727;SDS011;65652;53.132;18.026;2022-12-18T03:52:56;26.60;;;7.60;;
76727;SDS011;65652;53.132;18.026;2022-12-18T03:55:27;30.80;;;9.50;;
76727;SDS011;65652;53.132;18.026;2022-12-18T03:58:00;25.40;;;7.00;;
76727;SDS011;65652;53.132;18.026;2022-12-18T04:00:36;27.60;;;8.80;;
76727;SDS011;65652;53.132;18.026;2022-12-18T04:03:06;28.40;;;9.40;;
76727;SDS011;65652;53.132;18.026;2022-12-18T04:05:40;34.00;;;10.20;;
76727;SDS011;65652;53.132;18.026;2022-12-18T04:08:09;34.50;;;10.00;;
76727;SDS011;65652;53.132;18.026;2022-12-18T04:10:38;30.50;;;9.40;;
76727;SDS011;65652;53.132;18.026;2022-12-18T04:13:04;29.20;;;9.80;;
76727;SDS011;65652;53.132;18.026;2022-12-18T04:15:31;28.40;;;8.60;;
76727;SDS011;65652;53.132;18.026;2022-12-18T04:18:02;22.10;;;7.20;;
76727;SDS011;65652;53.132;18.026;2022-12-18T04:20:34;24.50;;;6.90;;
76727;SDS011;65652;53.132;18.026;2022-12-18T04:23:00;27.60;;;9.10;;
76727;SDS011;65652;53.132;18.026;2022-12-18T04:25:27;27.80;;;8.20;;
76727;SDS011;65652;53.132;18.026;2022-12-18T04:28:03;16.00;;;6.10;;
76727;SDS011;65652;53.132;18.026;2022-12-18T04:30:30;19.40;;;6.40;;
76727;SDS011;65652;53.132;18.026;2022-12-18T04:32:56;20.30;;;5.50;;
76727;SDS011;65652;53.132;18.026;2022-12-18T04:35:23;32.10;;;10.90;;
76727;SDS011;65652;53.132;18.026;2022-12-18T04:37:49;36.90;;;10.80;;
76727;SDS011;65652;53.132;18.026;2022-12-18T04:40:16;20.00;;;5.40;;
76727;SDS011;65652;53.132;18.026;2022-12-18T04:42:43;30.70;;;9.70;;
76727;SDS011;65652;53.132;18.026;2022-12-18T04:45:12;28.50;;;9.70;;
76727;SDS011;65652;53.132;18.026;2022-12-18T04:47:39;31.00;;;9.00;;
76727;SDS011;65652;53.132;18.026;2022-12-18T04:50:05;28.00;;;9.60;;
76727;SDS011;65652;53.132;18.026;2022-12-18T04:52:31;28.40;;;9.40;;
76727;SDS011;65652;53.132;18.026;2022-12-18T04:54:58;21.50;;;7.20;;
76727;SDS011;65652;53.132;18.026;2022-12-18T04:57:24;28.80;;;9.30;;
76727;SDS011;65652;53.132;18.026;2022-12-18T04:59:50;19.00;;;6.30;;
76727;SDS011;65652;53.132;18.026;2022-12-18T05:02:16;24.80;;;7.70;;
76727;SDS011;65652;53.132;18.026;2022-12-18T05:04:43;28.20;;;9.10;;
76727;SDS011;65652;53.132;18.026;2022-12-18T05:07:09;31.30;;;10.10;;
76727;SDS011;65652;53.132;18.026;2022-12-18T05:09:35;31.60;;;10.30;;
76727;SDS011;65652;53.132;18.026;2022-12-18T05:12:01;28.50;;;8.80;;
76727;SDS011;65652;53.132;18.026;2022-12-18T05:14:27;30.70;;;9.50;;
76727;SDS011;65652;53.132;18.026;2022-12-18T05:16:54;31.20;;;9.20;;
76727;SDS011;65652;53.132;18.026;2022-12-18T05:19:21;30.70;;;9.30;;
76727;SDS011;65652;53.132;18.026;2022-12-18T05:21:47;26.80;;;8.40;;
76727;SDS011;65652;53.132;18.026;2022-12-18T05:24:13;35.60;;;10.80;;
76727;SDS011;65652;53.132;18.026;2022-12-18T05:26:39;35.90;;;11.60;;
76727;SDS011;65652;53.132;18.026;2022-12-18T05:29:06;29.40;;;10.20;;
76727;SDS011;65652;53.132;18.026;2022-12-18T05:31:32;33.00;;;10.90;;
76727;SDS011;65652;53.132;18.026;2022-12-18T05:33:58;35.20;;;11.60;;
76727;SDS011;65652;53.132;18.026;2022-12-18T05:36:24;34.20;;;10.30;;
76727;SDS011;65652;53.132;18.026;2022-12-18T05:38:50;37.80;;;11.50;;
76727;SDS011;65652;53.132;18.026;2022-12-18T05:41:16;36.20;;;11.80;;
76727;SDS011;65652;53.132;18.026;2022-12-18T05:43:43;37.60;;;11.80;;
76727;SDS011;65652;53.132;18.026;2022-12-18T05:46:12;32.70;;;9.80;;
76727;SDS011;65652;53.132;18.026;2022-12-18T05:48:41;38.80;;;10.70;;
76727;SDS011;65652;53.132;18.026;2022-12-18T05:51:09;41.40;;;10.50;;
76727;SDS011;65652;53.132;18.026;2022-12-18T05:53:40;33.30;;;9.70;;
76727;SDS011;65652;53.132;18.026;2022-12-18T05:56:10;31.50;;;9.20;;
76727;SDS011;65652;53.132;18.026;2022-12-18T05:58:38;20.00;;;6.80;;
76727;SDS011;65652;53.132;18.026;2022-12-18T06:03:40;37.70;;;10.40;;
76727;SDS011;65652;53.132;18.026;2022-12-18T06:06:16;36.90;;;11.20;;
76727;SDS011;65652;53.132;18.026;2022-12-18T06:08:44;34.70;;;9.90;;
76727;SDS011;65652;53.132;18.026;2022-12-18T06:11:10;33.20;;;10.70;;
76727;SDS011;65652;53.132;18.026;2022-12-18T06:13:37;26.40;;;8.60;;
76727;SDS011;65652;53.132;18.026;2022-12-18T06:16:04;27.20;;;8.20;;
76727;SDS011;65652;53.132;18.026;2022-12-18T06:18:31;30.50;;;9.30;;
76727;SDS011;65652;53.132;18.026;2022-12-18T06:20:58;35.70;;;10.60;;
76727;SDS011;65652;53.132;18.026;2022-12-18T06:23:25;36.50;;;9.90;;
76727;SDS011;65652;53.132;18.026;2022-12-18T06:25:52;38.20;;;12.00;;
76727;SDS011;65652;53.132;18.026;2022-12-18T06:28:18;30.30;;;9.50;;
76727;SDS011;65652;53.132;18.026;2022-12-18T06:30:45;29.30;;;9.10;;
76727;SDS011;65652;53.132;18.026;2022-12-18T06:33:12;39.50;;;10.60;;
76727;SDS011;65652;53.132;18.026;2022-12-18T06:35:38;37.10;;;11.50;;
76727;SDS011;65652;53.132;18.026;2022-12-18T06:38:04;35.40;;;10.80;;
76727;SDS011;65652;53.132;18.026;2022-12-18T06:40:31;35.70;;;11.10;;
76727;SDS011;65652;53.132;18.026;2022-12-18T06:42:57;39.60;;;11.70;;
76727;SDS011;65652;53.132;18.026;2022-12-18T06:45:23;31.30;;;10.30;;
76727;SDS011;65652;53.132;18.026;2022-12-18T06:47:50;35.00;;;10.00;;
76727;SDS011;65652;53.132;18.026;2022-12-18T06:50:17;31.00;;;10.70;;
76727;SDS011;65652;53.132;18.026;2022-12-18T06:52:43;37.00;;;10.40;;
76727;SDS011;65652;53.132;18.026;2022-12-18T06:55:10;28.80;;;9.70;;
76727;SDS011;65652;53.132;18.026;2022-12-18T06:57:37;30.10;;;9.60;;
76727;SDS011;65652;53.132;18.026;2022-12-18T07:00:04;25.60;;;6.60;;
76727;SDS011;65652;53.132;18.026;2022-12-18T07:02:31;30.10;;;9.50;;
76727;SDS011;65652;53.132;18.026;2022-12-18T07:04:58;37.80;;;11.40;;
76727;SDS011;65652;53.132;18.026;2022-12-18T07:07:24;40.70;;;11.60;;
76727;SDS011;65652;53.132;18.026;2022-12-18T07:09:50;41.30;;;10.80;;
76727;SDS011;65652;53.132;18.026;2022-12-18T07:12:17;35.50;;;11.30;;
76727;SDS011;65652;53.132;18.026;2022-12-18T07:14:43;33.10;;;11.40;;
76727;SDS011;65652;53.132;18.026;2022-12-18T07:17:10;34.20;;;9.90;;
76727;SDS011;65652;53.132;18.026;2022-12-18T07:19:36;33.70;;;11.60;;
76727;SDS011;65652;53.132;18.026;2022-12-18T07:22:02;37.80;;;11.40;;
76727;SDS011;65652;53.132;18.026;2022-12-18T07:24:28;26.10;;;8.60;;
76727;SDS011;65652;53.132;18.026;2022-12-18T07:26:54;35.70;;;10.60;;
76727;SDS011;65652;53.132;18.026;2022-12-18T07:29:21;30.90;;;8.50;;
76727;SDS011;65652;53.132;18.026;2022-12-18T07:31:47;24.80;;;7.50;;
76727;SDS011;65652;53.132;18.026;2022-12-18T07:34:13;36.80;;;11.00;;
76727;SDS011;65652;53.132;18.026;2022-12-18T07:36:41;36.20;;;10.30;;
76727;SDS011;65652;53.132;18.026;2022-12-18T07:39:07;35.10;;;10.20;;
76727;SDS011;65652;53.132;18.026;2022-12-18T07:41:33;31.30;;;10.10;;
76727;SDS011;65652;53.132;18.026;2022-12-18T07:44:08;29.40;;;9.30;;
76727;SDS011;65652;53.132;18.026;2022-12-18T07:46:36;27.90;;;8.60;;
76727;SDS011;65652;53.132;18.026;2022-12-18T07:49:02;16.40;;;4.10;;
76727;SDS011;65652;53.132;18.026;2022-12-18T07:51:28;31.10;;;10.20;;
76727;SDS011;65652;53.132;18.026;2022-12-18T07:53:54;22.50;;;8.60;;
76727;SDS011;65652;53.132;18.026;2022-12-18T07:56:22;20.70;;;5.90;;
76727;SDS011;65652;53.132;18.026;2022-12-18T07:58:48;24.50;;;6.90;;
76727;SDS011;65652;53.132;18.026;2022-12-18T08:01:14;30.10;;;9.40;;
76727;SDS011;65652;53.132;18.026;2022-12-18T08:03:41;32.80;;;9.70;;
76727;SDS011;65652;53.132;18.026;2022-12-18T08:06:07;40.80;;;11.50;;
76727;SDS011;65652;53.132;18.026;2022-12-18T08:08:35;41.30;;;11.70;;
76727;SDS011;65652;53.132;18.026;2022-12-18T08:11:02;38.10;;;12.70;;
76727;SDS011;65652;53.132;18.026;2022-12-18T08:13:29;32.40;;;9.80;;
76727;SDS011;65652;53.132;18.026;2022-12-18T08:15:59;34.90;;;10.70;;
76727;SDS011;65652;53.132;18.026;2022-12-18T08:18:27;36.90;;;11.50;;
76727;SDS011;65652;53.132;18.026;2022-12-18T08:20:54;30.00;;;8.90;;
76727;SDS011;65652;53.132;18.026;2022-12-18T08:23:21;33.30;;;10.00;;
76727;SDS011;65652;53.132;18.026;2022-12-18T08:25:47;36.30;;;11.10;;
76727;SDS011;65652;53.132;18.026;2022-12-18T08:28:14;23.80;;;8.70;;
76727;SDS011;65652;53.132;18.026;2022-12-18T08:30:41;20.70;;;7.50;;
76727;SDS011;65652;53.132;18.026;2022-12-18T08:33:08;33.10;;;9.00;;
76727;SDS011;65652;53.132;18.026;2022-12-18T08:35:35;32.80;;;9.20;;
76727;SDS011;65652;53.132;18.026;2022-12-18T08:38:02;40.30;;;11.30;;
76727;SDS011;65652;53.132;18.026;2022-12-18T08:40:29;36.20;;;11.20;;
76727;SDS011;65652;53.132;18.026;2022-12-18T08:42:55;23.40;;;5.80;;
76727;SDS011;65652;53.132;18.026;2022-12-18T08:45:40;37.60;;;11.30;;
76727;SDS011;65652;53.132;18.026;2022-12-18T08:48:06;26.50;;;8.60;;
76727;SDS011;65652;53.132;18.026;2022-12-18T08:50:32;35.10;;;10.20;;
76727;SDS011;65652;53.132;18.026;2022-12-18T08:52:58;33.30;;;10.10;;
76727;SDS011;65652;53.132;18.026;2022-12-18T08:55:24;20.10;;;6.20;;
76727;SDS011;65652;53.132;18.026;2022-12-18T08:57:50;21.90;;;7.20;;
76727;SDS011;65652;53.132;18.026;2022-12-18T09:00:17;19.60;;;6.80;;
76727;SDS011;65652;53.132;18.026;2022-12-18T09:02:43;37.30;;;10.50;;
76727;SDS011;65652;53.132;18.026;2022-12-18T09:05:09;35.40;;;10.90;;
76727;SDS011;65652;53.132;18.026;2022-12-18T09:07:38;17.10;;;4.70;;
76727;SDS011;65652;53.132;18.026;2022-12-18T09:10:04;27.20;;;7.50;;
76727;SDS011;65652;53.132;18.026;2022-12-18T09:12:31;19.80;;;5.50;;
76727;SDS011;65652;53.132;18.026;2022-12-18T09:14:57;42.40;;;12.10;;
76727;SDS011;65652;53.132;18.026;2022-12-18T09:17:24;40.70;;;12.60;;
76727;SDS011;65652;53.132;18.026;2022-12-18T09:19:50;37.20;;;10.60;;
76727;SDS011;65652;53.132;18.026;2022-12-18T09:22:16;27.40;;;7.10;;
76727;SDS011;65652;53.132;18.026;2022-12-18T09:24:42;40.90;;;10.90;;
76727;SDS011;65652;53.132;18.026;2022-12-18T09:27:09;34.60;;;10.50;;
76727;SDS011;65652;53.132;18.026;2022-12-18T09:29:35;28.20;;;9.00;;
76727;SDS011;65652;53.132;18.026;2022-12-18T09:32:02;28.70;;;8.70;;
76727;SDS011;65652;53.132;18.026;2022-12-18T09:34:28;26.80;;;8.00;;
76727;SDS011;65652;53.132;18.026;2022-12-18T09:36:54;27.10;;;9.90;;
76727;SDS011;65652;53.132;18.026;2022-12-18T09:39:21;25.00;;;7.80;;
76727;SDS011;65652;53.132;18.026;2022-12-18T09:41:51;31.50;;;9.90;;
76727;SDS011;65652;53.132;18.026;2022-12-18T09:49:42;52.00;;;18.80;;
76727;SDS011;65652;53.132;18.026;2022-12-18T09:52:16;43.70;;;14.30;;
76727;SDS011;65652;53.132;18.026;2022-12-18T09:54:52;44.70;;;14.30;;
76727;SDS011;65652;53.132;18.026;2022-12-18T09:57:23;27.30;;;7.10;;
76727;SDS011;65652;53.132;18.026;2022-12-18T09:59:56;27.10;;;7.80;;
76727;SDS011;65652;53.132;18.026;2022-12-18T10:02:39;26.70;;;7.40;;
76727;SDS011;65652;53.132;18.026;2022-12-18T10:07:35;29.70;;;7.50;;
76727;SDS011;65652;53.132;18.026;2022-12-18T10:10:14;25.90;;;8.60;;
76727;SDS011;65652;53.132;18.026;2022-12-18T10:16:00;19.30;;;6.00;;
76727;SDS011;65652;53.132;18.026;2022-12-18T10:18:58;9.90;;;3.50;;
76727;SDS011;65652;53.132;18.026;2022-12-18T10:21:31;34.30;;;11.20;;
76727;SDS011;65652;53.132;18.026;2022-12-18T10:26:46;42.30;;;12.80;;
76727;SDS011;65652;53.132;18.026;2022-12-18T10:29:13;39.40;;;11.80;;
76727;SDS011;65652;53.132;18.026;2022-12-18T10:31:41;26.80;;;9.40;;
76727;SDS011;65652;53.132;18.026;2022-12-18T10:34:11;36.10;;;12.10;;
76727;SDS011;65652;53.132;18.026;2022-12-18T10:36:38;27.00;;;8.10;;
76727;SDS011;65652;53.132;18.026;2022-12-18T10:39:14;31.80;;;10.00;;
76727;SDS011;65652;53.132;18.026;2022-12-18T10:41:45;25.00;;;8.30;;
76727;SDS011;65652;53.132;18.026;2022-12-18T10:44:19;20.40;;;6.90;;
76727;SDS011;65652;53.132;18.026;2022-12-18T10:46:50;22.40;;;6.30;;
76727;SDS011;65652;53.132;18.026;2022-12-18T10:49:25;25.30;;;7.90;;
76727;SDS011;65652;53.132;18.026;2022-12-18T10:54:46;23.60;;;6.50;;
76727;SDS011;65652;53.132;18.026;2022-12-18T10:57:17;33.50;;;9.70;;
76727;SDS011;65652;53.132;18.026;2022-12-18T11:00:21;33.70;;;10.20;;
76727;SDS011;65652;53.132;18.026;2022-12-18T11:02:50;26.90;;;8.90;;
76727;SDS011;65652;53.132;18.026;2022-12-18T11:07:53;37.60;;;11.00;;
76727;SDS011;65652;53.132;18.026;2022-12-18T11:10:21;34.50;;;10.50;;
76727;SDS011;65652;53.132;18.026;2022-12-18T11:12:51;26.10;;;7.30;;
76727;SDS011;65652;53.132;18.026;2022-12-18T11:15:26;34.50;;;10.20;;
76727;SDS011;65652;53.132;18.026;2022-12-18T11:17:55;27.70;;;6.90;;
76727;SDS011;65652;53.132;18.026;2022-12-18T11:20:31;33.30;;;10.50;;
76727;SDS011;65652;53.132;18.026;2022-12-18T11:23:04;28.00;;;8.10;;
76727;SDS011;65652;53.132;18.026;2022-12-18T11:25:38;32.30;;;9.40;;
76727;SDS011;65652;53.132;18.026;2022-12-18T11:31:08;23.40;;;6.80;;
76727;SDS011;65652;53.132;18.026;2022-12-18T11:33:42;26.90;;;7.50;;
76727;SDS011;65652;53.132;18.026;2022-12-18T11:36:12;18.20;;;4.50;;
76727;SDS011;65652;53.132;18.026;2022-12-18T11:38:40;26.00;;;8.80;;
76727;SDS011;65652;53.132;18.026;2022-12-18T11:50:14;43.20;;;12.50;;
76727;SDS011;65652;53.132;18.026;2022-12-18T11:52:46;49.00;;;13.70;;
76727;SDS011;65652;53.132;18.026;2022-12-18T12:00:29;41.00;;;10.70;;
76727;SDS011;65652;53.132;18.026;2022-12-18T12:14:28;20.10;;;5.30;;
76727;SDS011;65652;53.132;18.026;2022-12-18T12:17:11;18.50;;;5.20;;
76727;SDS011;65652;53.132;18.026;2022-12-18T12:22:55;37.40;;;11.30;;
76727;SDS011;65652;53.132;18.026;2022-12-18T12:25:41;31.80;;;8.70;;
76727;SDS011;65652;53.132;18.026;2022-12-18T12:36:36;24.30;;;6.60;;
76727;SDS011;65652;53.132;18.026;2022-12-18T12:39:06;47.50;;;13.20;;
76727;SDS011;65652;53.132;18.026;2022-12-18T12:41:37;42.20;;;11.20;;
76727;SDS011;65652;53.132;18.026;2022-12-18T12:44:25;46.50;;;13.10;;
76727;SDS011;65652;53.132;18.026;2022-12-18T12:46:56;57.10;;;12.90;;
76727;SDS011;65652;53.132;18.026;2022-12-18T12:49:27;46.40;;;13.00;;
76727;SDS011;65652;53.132;18.026;2022-12-18T12:52:04;44.50;;;12.50;;
76727;SDS011;65652;53.132;18.026;2022-12-18T12:54:36;40.80;;;11.90;;
76727;SDS011;65652;53.132;18.026;2022-12-18T12:59:49;46.40;;;13.40;;
76727;SDS011;65652;53.132;18.026;2022-12-18T13:05:25;48.40;;;14.40;;
76727;SDS011;65652;53.132;18.026;2022-12-18T13:20:40;57.30;;;15.60;;
76727;SDS011;65652;53.132;18.026;2022-12-18T13:23:27;58.60;;;15.30;;
76727;SDS011;65652;53.132;18.026;2022-12-18T13:26:28;49.10;;;12.80;;
76727;SDS011;65652;53.132;18.026;2022-12-18T13:28:52;47.30;;;12.10;;
76727;SDS011;65652;53.132;18.026;2022-12-18T13:34:20;37.40;;;11.50;;
76727;SDS011;65652;53.132;18.026;2022-12-18T13:36:56;47.30;;;14.00;;
76727;SDS011;65652;53.132;18.026;2022-12-18T13:45:49;41.30;;;11.10;;
76727;SDS011;65652;53.132;18.026;2022-12-18T13:48:27;29.40;;;9.40;;
76727;SDS011;65652;53.132;18.026;2022-12-18T13:50:56;46.70;;;14.90;;
76727;SDS011;65652;53.132;18.026;2022-12-18T13:53:27;37.10;;;10.10;;
76727;SDS011;65652;53.132;18.026;2022-12-18T13:55:56;32.00;;;9.00;;
76727;SDS011;65652;53.132;18.026;2022-12-18T13:58:23;43.30;;;11.80;;
76727;SDS011;65652;53.132;18.026;2022-12-18T14:00:49;45.70;;;13.20;;
76727;SDS011;65652;53.132;18.026;2022-12-18T14:03:20;68.70;;;16.60;;
76727;SDS011;65652;53.132;18.026;2022-12-18T14:05:59;49.70;;;14.80;;
76727;SDS011;65652;53.132;18.026;2022-12-18T14:08:38;51.40;;;14.20;;
76727;SDS011;65652;53.132;18.026;2022-12-18T14:11:06;50.30;;;12.90;;
76727;SDS011;65652;53.132;18.026;2022-12-18T14:13:45;58.30;;;14.80;;
76727;SDS011;65652;53.132;18.026;2022-12-18T14:16:13;45.90;;;13.90;;
76727;SDS011;65652;53.132;18.026;2022-12-18T14:21:45;51.80;;;13.60;;
76727;SDS011;65652;53.132;18.026;2022-12-18T14:24:05;37.50;;;11.70;;
76727;SDS011;65652;53.132;18.026;2022-12-18T14:26:35;55.20;;;15.20;;
76727;SDS011;65652;53.132;18.026;2022-12-18T14:29:16;45.30;;;13.70;;
76727;SDS011;65652;53.132;18.026;2022-12-18T14:31:45;48.20;;;13.00;;
76727;SDS011;65652;53.132;18.026;2022-12-18T14:34:15;38.80;;;11.30;;
76727;SDS011;65652;53.132;18.026;2022-12-18T14:36:51;38.20;;;11.10;;
76727;SDS011;65652;53.132;18.026;2022-12-18T14:39:18;35.00;;;10.70;;
76727;SDS011;65652;53.132;18.026;2022-12-18T14:41:45;40.70;;;11.40;;
76727;SDS011;65652;53.132;18.026;2022-12-18T14:44:12;51.20;;;13.00;;
76727;SDS011;65652;53.132;18.026;2022-12-18T14:46:39;45.20;;;13.00;;
76727;SDS011;65652;53.132;18.026;2022-12-18T14:51:47;44.20;;;12.40;;
76727;SDS011;65652;53.132;18.026;2022-12-18T14:54:17;50.20;;;13.00;;
76727;SDS011;65652;53.132;18.026;2022-12-18T14:56:49;52.70;;;15.30;;
76727;SDS011;65652;53.132;18.026;2022-12-18T14:59:21;55.20;;;15.00;;
76727;SDS011;65652;53.132;18.026;2022-12-18T15:04:24;49.70;;;14.40;;
76727;SDS011;65652;53.132;18.026;2022-12-18T15:09:39;41.60;;;11.50;;
76727;SDS011;65652;53.132;18.026;2022-12-18T15:12:19;53.60;;;14.20;;
76727;SDS011;65652;53.132;18.026;2022-12-18T15:14:55;49.00;;;13.10;;
76727;SDS011;65652;53.132;18.026;2022-12-18T15:17:21;53.20;;;13.80;;
76727;SDS011;65652;53.132;18.026;2022-12-18T15:19:51;48.90;;;13.50;;
76727;SDS011;65652;53.132;18.026;2022-12-18T15:24:56;44.30;;;13.00;;
76727;SDS011;65652;53.132;18.026;2022-12-18T15:27:26;57.60;;;14.00;;
76727;SDS011;65652;53.132;18.026;2022-12-18T15:32:36;63.00;;;15.80;;
76727;SDS011;65652;53.132;18.026;2022-12-18T15:35:11;51.80;;;14.70;;
76727;SDS011;65652;53.132;18.026;2022-12-18T15:37:41;45.90;;;14.20;;
76727;SDS011;65652;53.132;18.026;2022-12-18T15:40:11;47.30;;;12.00;;
76727;SDS011;65652;53.132;18.026;2022-12-18T15:42:42;60.10;;;15.30;;
76727;SDS011;65652;53.132;18.026;2022-12-18T15:45:27;52.20;;;12.90;;
76727;SDS011;65652;53.132;18.026;2022-12-18T15:47:54;57.70;;;15.30;;
76727;SDS011;65652;53.132;18.026;2022-12-18T15:50:20;48.20;;;12.20;;
76727;SDS011;65652;53.132;18.026;2022-12-18T15:52:47;55.90;;;13.70;;
76727;SDS011;65652;53.132;18.026;2022-12-18T15:58:02;49.90;;;14.90;;
76727;SDS011;65652;53.132;18.026;2022-12-18T16:00:28;53.60;;;14.80;;
76727;SDS011;65652;53.132;18.026;2022-12-18T16:02:55;55.10;;;14.80;;
76727;SDS011;65652;53.132;18.026;2022-12-18T16:05:21;56.90;;;16.00;;
76727;SDS011;65652;53.132;18.026;2022-12-18T16:07:49;48.50;;;14.30;;
76727;SDS011;65652;53.132;18.026;2022-12-18T16:10:16;55.90;;;15.10;;
76727;SDS011;65652;53.132;18.026;2022-12-18T16:12:43;48.10;;;14.20;;
76727;SDS011;65652;53.132;18.026;2022-12-18T16:15:10;50.80;;;15.50;;
76727;SDS011;65652;53.132;18.026;2022-12-18T16:17:39;58.00;;;15.70;;
76727;SDS011;65652;53.132;18.026;2022-12-18T16:20:08;52.00;;;14.40;;
76727;SDS011;65652;53.132;18.026;2022-12-18T16:22:41;46.00;;;12.80;;
76727;SDS011;65652;53.132;18.026;2022-12-18T16:25:15;47.60;;;13.80;;
76727;SDS011;65652;53.132;18.026;2022-12-18T16:27:46;26.00;;;8.70;;
76727;SDS011;65652;53.132;18.026;2022-12-18T16:30:17;48.30;;;12.20;;
76727;SDS011;65652;53.132;18.026;2022-12-18T16:32:45;53.50;;;14.80;;
76727;SDS011;65652;53.132;18.026;2022-12-18T16:35:13;58.20;;;15.70;;
76727;SDS011;65652;53.132;18.026;2022-12-18T16:37:41;54.10;;;14.80;;
76727;SDS011;65652;53.132;18.026;2022-12-18T16:40:09;50.20;;;13.70;;
76727;SDS011;65652;53.132;18.026;2022-12-18T16:42:38;54.00;;;15.00;;
76727;SDS011;65652;53.132;18.026;2022-12-18T16:45:06;46.90;;;13.10;;
76727;SDS011;65652;53.132;18.026;2022-12-18T16:50:00;48.80;;;13.50;;
76727;SDS011;65652;53.132;18.026;2022-12-18T16:52:28;37.50;;;10.00;;
76727;SDS011;65652;53.132;18.026;2022-12-18T16:54:55;53.30;;;14.20;;
76727;SDS011;65652;53.132;18.026;2022-12-18T16:57:21;28.50;;;8.20;;